createdAt,value
2018-10-07T06:42:17.606Z,11.80
2018-10-07T06:44:51.937Z,11.76
2018-10-07T06:46:17.873Z,11.76
2018-10-07T06:47:45.094Z,11.74
2018-10-07T06:49:13.743Z,11.73
2018-10-07T06:50:40.084Z,11.69
2018-10-07T06:52:07.373Z,11.63
2018-10-07T06:53:34.613Z,11.57
2018-10-07T06:55:01.800Z,11.48
2018-10-07T06:56:29.972Z,11.44
2018-10-07T07:01:11.165Z,11.39
2018-10-07T07:02:37.730Z,11.44
2018-10-07T07:04:13.655Z,11.48
2018-10-07T07:05:40.611Z,11.43
2018-10-07T07:07:08.124Z,11.44
2018-10-07T07:08:35.402Z,11.37
2018-10-07T07:10:03.871Z,11.36
2018-10-07T07:11:30.279Z,11.36
2018-10-07T07:12:58.779Z,11.36
2018-10-07T07:14:24.821Z,11.38
2018-10-07T07:15:53.314Z,11.44
2018-10-07T07:17:19.636Z,11.43
2018-10-07T07:18:47.932Z,11.47
2018-10-07T07:20:14.688Z,11.48
2018-10-07T07:21:40.886Z,11.48
2018-10-07T07:23:09.362Z,11.49
2018-10-07T07:24:36.445Z,11.47
2018-10-07T07:26:02.707Z,11.47
2018-10-07T07:27:30.069Z,11.49
2018-10-07T07:28:58.475Z,11.49
2018-10-07T07:30:25.910Z,11.52
2018-10-07T07:31:53.263Z,11.52
2018-10-07T07:33:19.630Z,11.49
2018-10-07T07:34:46.843Z,11.51
2018-10-07T07:36:14.252Z,11.48
2018-10-07T07:37:42.734Z,11.49
2018-10-07T07:39:10.038Z,11.50
2018-10-07T07:40:37.403Z,11.53
2018-10-07T07:42:04.805Z,11.58
2018-10-07T07:43:30.987Z,11.61
2018-10-07T07:44:58.291Z,11.63
2018-10-07T07:46:26.710Z,11.63
2018-10-07T07:47:53.112Z,11.63
2018-10-07T07:49:21.452Z,11.63
2018-10-07T07:50:48.812Z,11.66
2018-10-07T07:52:16.097Z,11.64
2018-10-07T07:53:43.646Z,11.59
2018-10-07T07:55:09.944Z,11.54
2018-10-07T07:56:37.385Z,11.55
2018-10-07T07:58:05.911Z,11.52
2018-10-07T07:59:33.348Z,11.50
2018-10-07T08:00:59.575Z,11.51
2018-10-07T08:02:27.961Z,11.52
2018-10-07T08:03:55.419Z,11.53
2018-10-07T08:05:21.549Z,11.50
2018-10-07T08:06:48.983Z,11.48
2018-10-07T08:08:17.239Z,11.48
2018-10-07T08:09:43.353Z,11.50
2018-10-07T08:11:10.648Z,11.53
2018-10-07T08:12:37.821Z,11.55
2018-10-07T08:14:05.101Z,11.60
2018-10-07T08:15:33.382Z,11.58
2018-10-07T08:16:59.659Z,11.62
2018-10-07T08:18:27.925Z,11.63
2018-10-07T08:19:54.403Z,11.66
2018-10-07T08:21:22.629Z,11.71
2018-10-07T08:22:48.993Z,11.73
2018-10-07T08:24:17.357Z,11.77
2018-10-07T08:25:43.700Z,11.80
2018-10-07T08:27:12.044Z,11.81
2018-10-07T08:28:38.337Z,11.84
2018-10-07T08:30:06.700Z,11.87
2018-10-07T08:31:33.215Z,11.90
2018-10-07T08:33:00.274Z,11.91
2018-10-07T08:34:27.639Z,11.95
2018-10-07T08:35:55.899Z,11.92
2018-10-07T08:37:22.179Z,11.92
2018-10-07T08:38:50.609Z,11.89
2018-10-07T08:40:16.969Z,11.90
2018-10-07T08:41:44.313Z,11.91
2018-10-07T08:43:11.442Z,11.96
2018-10-07T08:44:39.837Z,12.00
2018-10-07T08:46:06.030Z,12.03
2018-10-07T08:47:34.444Z,12.05
2018-10-07T08:49:01.911Z,12.05
2018-10-07T08:50:29.248Z,12.05
2018-10-07T08:51:55.432Z,12.09
2018-10-07T08:53:22.725Z,12.14
2018-10-07T08:54:49.852Z,12.15
2018-10-07T08:56:17.419Z,12.16
2018-10-07T08:57:45.592Z,12.17
2018-10-07T08:59:13.053Z,12.22
2018-10-07T09:00:40.371Z,12.28
2018-10-07T09:02:07.895Z,12.33
2018-10-07T09:03:34.383Z,12.40
2018-10-07T09:05:01.860Z,12.49
2018-10-07T09:06:30.431Z,12.60
2018-10-07T09:07:56.725Z,12.69
2018-10-07T09:09:25.099Z,12.72
2018-10-07T09:10:52.685Z,12.73
2018-10-07T09:12:18.916Z,12.73
2018-10-07T09:13:47.396Z,12.73
2018-10-07T09:15:13.651Z,12.72
2018-10-07T09:16:42.335Z,12.70
2018-10-07T09:18:08.712Z,12.68
2018-10-07T09:19:37.188Z,12.64
2018-10-07T09:21:03.726Z,12.62
2018-10-07T09:22:32.168Z,12.65
2018-10-07T09:23:58.670Z,12.68
2018-10-07T09:25:26.094Z,12.70
2018-10-07T09:26:53.536Z,12.74
2018-10-07T09:28:20.790Z,12.82
2018-10-07T09:29:48.191Z,12.85
2018-10-07T09:31:18.659Z,12.86
2018-10-07T09:32:43.967Z,12.85
2018-10-07T09:34:11.361Z,12.82
2018-10-07T09:35:38.749Z,12.81
2018-10-07T09:37:06.074Z,12.85
2018-10-07T09:38:33.497Z,12.88
2018-10-07T09:40:00.831Z,12.94
2018-10-07T09:41:28.279Z,12.99
2018-10-07T09:42:54.483Z,13.04
2018-10-07T09:44:22.072Z,13.04
2018-10-07T09:45:49.285Z,13.08
2018-10-07T09:47:16.583Z,13.04
2018-10-07T09:48:44.873Z,12.96
2018-10-07T09:50:12.280Z,12.89
2018-10-07T09:51:39.580Z,12.87
2018-10-07T09:53:07.078Z,12.86
2018-10-07T09:54:33.366Z,12.86
2018-10-07T09:56:01.902Z,12.87
2018-10-07T09:57:29.218Z,12.89
2018-10-07T09:58:55.580Z,12.97
2018-10-07T10:00:23.176Z,13.09
2018-10-07T10:01:50.493Z,13.21
2018-10-07T10:03:18.825Z,13.32
2018-10-07T10:04:46.131Z,13.36
2018-10-07T10:06:12.480Z,13.35
2018-10-07T10:07:39.841Z,13.32
2018-10-07T10:09:08.116Z,13.38
2018-10-07T10:10:34.582Z,13.47
2018-10-07T10:12:02.130Z,13.52
2018-10-07T10:13:30.456Z,13.59
2018-10-07T10:14:56.828Z,13.63
2018-10-07T10:16:25.229Z,13.64
2018-10-07T10:17:52.701Z,13.70
2018-10-07T10:19:20.002Z,13.77
2018-10-07T10:20:47.138Z,13.74
2018-10-07T10:22:14.753Z,13.67
2018-10-07T10:23:42.295Z,13.62
2018-10-07T10:25:08.681Z,13.59
2018-10-07T10:26:37.212Z,13.60
2018-10-07T10:28:03.665Z,13.62
2018-10-07T10:29:30.976Z,13.73
2018-10-07T10:30:58.163Z,13.82
2018-10-07T10:32:25.713Z,13.82
2018-10-07T10:33:54.201Z,13.77
2018-10-07T10:35:20.588Z,13.78
2018-10-07T10:36:49.113Z,13.75
2018-10-07T10:38:16.297Z,13.74
2018-10-07T10:39:42.582Z,13.83
2018-10-07T10:41:11.123Z,13.87
2018-10-07T10:42:37.341Z,13.86
2018-10-07T10:44:05.824Z,13.89
2018-10-07T10:45:33.028Z,13.86
2018-10-07T10:46:59.585Z,13.81
2018-10-07T10:48:27.105Z,13.74
2018-10-07T10:49:54.540Z,13.72
2018-10-07T10:51:22.074Z,13.71
2018-10-07T10:52:49.609Z,13.69
2018-10-07T10:54:17.988Z,13.78
2018-10-07T10:55:44.354Z,13.82
2018-10-07T10:57:11.682Z,13.82
2018-10-07T10:58:38.912Z,13.85
2018-10-07T11:00:07.424Z,13.92
2018-10-07T11:01:33.747Z,13.93
2018-10-07T11:03:02.213Z,13.95
2018-10-07T11:04:29.748Z,13.94
2018-10-07T11:05:56.064Z,13.85
2018-10-07T11:07:24.559Z,13.83
2018-10-07T11:08:50.878Z,14.07
2018-10-07T11:10:19.309Z,14.33
2018-10-07T11:11:45.585Z,14.67
2018-10-07T11:13:14.000Z,14.97
2018-10-07T11:14:40.416Z,15.19
2018-10-07T11:16:08.871Z,15.28
2018-10-07T11:17:35.077Z,15.38
2018-10-07T11:19:03.727Z,15.35
2018-10-07T11:20:30.019Z,15.42
2018-10-07T11:21:57.480Z,15.60
2018-10-07T11:23:24.981Z,15.67
2018-10-07T11:24:52.572Z,15.73
2018-10-07T11:26:20.975Z,15.81
2018-10-07T11:27:47.308Z,15.78
2018-10-07T11:29:14.784Z,15.61
2018-10-07T11:30:42.138Z,15.71
2018-10-07T11:32:10.612Z,15.92
2018-10-07T11:33:38.175Z,16.09
2018-10-07T11:35:05.617Z,16.34
2018-10-07T11:36:32.017Z,16.38
2018-10-07T11:37:59.582Z,16.43
2018-10-07T11:39:27.990Z,16.11
2018-10-07T11:40:55.539Z,15.90
2018-10-07T11:42:22.873Z,15.65
2018-10-07T11:43:49.263Z,15.47
2018-10-07T11:45:16.652Z,15.47
2018-10-07T11:46:45.164Z,15.50
2018-10-07T11:48:11.426Z,15.47
2018-10-07T11:49:39.873Z,15.40
2018-10-07T11:51:06.320Z,15.38
2018-10-07T11:52:34.832Z,15.37
2018-10-07T11:54:02.264Z,15.44
2018-10-07T11:55:29.553Z,15.52
2018-10-07T11:56:57.132Z,15.59
2018-10-07T11:58:23.570Z,15.69
2018-10-07T11:59:51.132Z,15.67
2018-10-07T12:01:18.572Z,15.52
2018-10-07T12:02:46.077Z,15.60
2018-10-07T12:04:13.462Z,15.53
2018-10-07T12:05:42.012Z,15.38
2018-10-07T12:07:08.315Z,15.38
2018-10-07T12:08:36.675Z,15.24
2018-10-07T12:10:04.255Z,15.05
2018-10-07T12:11:31.548Z,14.91
2018-10-07T12:12:57.975Z,14.80
2018-10-07T12:14:25.463Z,14.96
2018-10-07T12:15:52.824Z,15.12
2018-10-07T12:17:21.354Z,15.15
2018-10-07T12:18:47.533Z,15.15
2018-10-07T12:20:15.994Z,15.06
2018-10-07T12:21:43.333Z,14.94
2018-10-07T12:23:10.599Z,14.81
2018-10-07T12:24:36.901Z,14.64
2018-10-07T12:26:05.762Z,14.56
2018-10-07T12:27:32.247Z,14.60
2018-10-07T12:29:00.734Z,14.54
2018-10-07T12:30:26.776Z,14.45
2018-10-07T12:31:54.222Z,14.40
2018-10-07T12:33:22.728Z,14.33
2018-10-07T12:34:49.993Z,14.31
2018-10-07T12:36:17.222Z,14.28
2018-10-07T12:37:43.443Z,14.15
2018-10-07T12:39:11.886Z,14.16
2018-10-07T12:40:39.366Z,14.25
2018-10-07T12:42:05.512Z,14.29
2018-10-07T12:43:33.212Z,14.30
2018-10-07T12:45:00.462Z,14.38
2018-10-07T12:46:27.952Z,14.42
2018-10-07T12:47:55.221Z,14.44
2018-10-07T12:49:22.665Z,14.52
2018-10-07T12:50:50.146Z,14.73
2018-10-07T12:52:18.505Z,14.88
2018-10-07T12:53:45.790Z,15.15
2018-10-07T12:55:12.217Z,15.31
2018-10-07T12:56:40.636Z,15.47
2018-10-07T12:58:08.267Z,15.43
2018-10-07T12:59:34.475Z,15.42
2018-10-07T13:01:02.049Z,15.46
2018-10-07T13:02:29.387Z,15.52
2018-10-07T13:03:57.588Z,15.62
2018-10-07T13:05:24.052Z,15.68
2018-10-07T13:06:51.697Z,15.57
2018-10-07T13:08:18.964Z,15.50
2018-10-07T13:09:47.467Z,15.44
2018-10-07T13:11:13.761Z,15.36
2018-10-07T13:12:41.241Z,15.17
2018-10-07T13:14:09.655Z,15.14
2018-10-07T13:15:36.973Z,15.13
2018-10-07T13:17:03.518Z,15.11
2018-10-07T13:18:31.140Z,15.05
2018-10-07T13:19:58.554Z,15.08
2018-10-07T13:21:25.963Z,15.08
2018-10-07T13:22:54.484Z,15.17
2018-10-07T13:24:21.113Z,15.31
2018-10-07T13:25:48.399Z,15.32
2018-10-07T13:27:16.813Z,15.36
2018-10-07T13:28:44.179Z,15.40
2018-10-07T13:30:10.614Z,15.38
2018-10-07T13:31:38.222Z,15.34
2018-10-07T13:33:05.583Z,15.29
2018-10-07T13:34:32.900Z,15.16
2018-10-07T13:36:00.279Z,15.09
2018-10-07T13:37:27.611Z,15.04
2018-10-07T13:38:54.984Z,14.93
2018-10-07T13:40:23.419Z,14.86
2018-10-07T13:41:49.750Z,14.97
2018-10-07T13:43:17.046Z,15.12
2018-10-07T13:44:44.267Z,15.25
2018-10-07T13:46:12.819Z,15.39
2018-10-07T13:47:39.150Z,15.43
2018-10-07T13:49:06.677Z,15.52
2018-10-07T13:50:35.183Z,15.55
2018-10-07T13:52:01.690Z,15.59
2018-10-07T13:53:29.380Z,15.43
2018-10-07T13:54:57.608Z,15.25
2018-10-07T13:56:24.934Z,15.23
2018-10-07T13:57:51.331Z,15.18
2018-10-07T13:59:19.683Z,15.09
2018-10-07T14:00:47.130Z,15.09
2018-10-07T14:02:13.380Z,15.11
2018-10-07T14:03:40.884Z,15.14
2018-10-07T14:05:08.281Z,15.19
2018-10-07T14:06:36.814Z,15.18
2018-10-07T14:08:04.256Z,15.17
2018-10-07T14:09:30.680Z,15.15
2018-10-07T14:10:58.184Z,14.99
2018-10-07T14:12:25.718Z,14.89
2018-10-07T14:13:54.083Z,14.67
2018-10-07T14:15:21.562Z,14.52
2018-10-07T14:16:48.845Z,14.44
2018-10-07T14:18:15.308Z,14.36
2018-10-07T14:19:42.858Z,14.32
2018-10-07T14:21:11.356Z,14.33
2018-10-07T14:22:38.885Z,14.26
2018-10-07T14:24:05.272Z,14.14
2018-10-07T14:25:32.769Z,14.12
2018-10-07T14:27:01.025Z,14.07
2018-10-07T14:28:27.283Z,14.05
2018-10-07T14:29:55.658Z,14.09
2018-10-07T14:31:22.039Z,14.15
2018-10-07T14:32:50.538Z,14.17
2018-10-07T14:34:16.729Z,14.18
2018-10-07T14:35:44.964Z,14.20
2018-10-07T14:37:12.468Z,14.15
2018-10-07T14:38:39.685Z,14.15
2018-10-07T14:40:07.325Z,14.13
2018-10-07T14:41:34.851Z,14.10
2018-10-07T14:43:01.234Z,14.06
2018-10-07T14:44:28.769Z,14.04
2018-10-07T14:45:56.927Z,14.03
2018-10-07T14:47:23.267Z,14.00
2018-10-07T14:48:51.785Z,14.02
2018-10-07T14:50:18.023Z,13.97
2018-10-07T14:51:51.424Z,13.95
2018-10-07T14:53:13.472Z,13.91
2018-10-07T14:54:40.746Z,13.93
2018-10-07T14:56:08.097Z,13.90
2018-10-07T14:57:34.465Z,13.87
2018-10-07T14:59:02.988Z,13.88
2018-10-07T15:00:29.289Z,13.92
2018-10-07T15:01:57.632Z,13.93
2018-10-07T15:03:24.087Z,13.87
2018-10-07T15:04:51.386Z,13.83
2018-10-07T15:06:19.758Z,13.84
2018-10-07T15:07:47.210Z,13.83
2018-10-07T15:09:14.415Z,13.80
2018-10-07T15:10:41.636Z,13.82
2018-10-07T15:12:07.891Z,13.83
2018-10-07T15:13:36.388Z,13.88
2018-10-07T15:15:02.854Z,13.85
2018-10-07T15:16:31.266Z,13.82
2018-10-07T15:17:58.573Z,13.77
2018-10-07T15:19:25.957Z,13.72
2018-10-07T15:20:53.501Z,13.67
2018-10-07T15:22:19.877Z,13.65
2018-10-07T15:23:47.334Z,13.60
2018-10-07T15:25:15.545Z,13.60
2018-10-07T15:26:41.787Z,13.60
2018-10-07T15:28:09.202Z,13.63
2018-10-07T15:29:36.724Z,13.65
2018-10-07T15:31:04.196Z,13.63
2018-10-07T15:32:31.477Z,13.58
2018-10-07T15:33:59.013Z,13.51
2018-10-07T15:35:26.392Z,13.50
2018-10-07T15:36:53.797Z,13.49
2018-10-07T15:38:22.334Z,13.49
2018-10-07T15:39:48.601Z,13.48
2018-10-07T15:41:16.898Z,13.48
2018-10-07T15:42:44.324Z,13.43
2018-10-07T15:44:10.540Z,13.39
2018-10-07T15:45:37.791Z,13.35
2018-10-07T15:47:06.300Z,13.32
2018-10-07T15:48:32.020Z,13.30
2018-10-07T15:49:59.500Z,13.30
2018-10-07T15:51:26.550Z,13.27
2018-10-07T15:52:54.996Z,13.23
2018-10-07T15:54:22.247Z,13.21
2018-10-07T15:55:49.688Z,13.16
2018-10-07T15:57:16.045Z,13.08
2018-10-07T15:58:44.383Z,13.03
2018-10-07T16:00:10.119Z,13.00
2018-10-07T16:01:37.225Z,12.96
2018-10-07T16:03:04.538Z,12.96
2018-10-07T16:04:32.637Z,12.95
2018-10-07T16:06:00.038Z,12.96
2018-10-07T16:07:26.282Z,12.95
2018-10-07T16:08:54.813Z,12.94
2018-10-07T16:10:22.210Z,12.92
2018-10-07T16:11:49.637Z,12.90
2018-10-07T16:13:16.855Z,12.88
2018-10-07T16:14:44.197Z,12.86
2018-10-07T16:16:10.420Z,12.84
2018-10-07T16:17:38.701Z,12.82
2018-10-07T16:19:06.419Z,12.79
2018-10-07T16:20:33.310Z,12.78
2018-10-07T16:21:59.577Z,12.75
2018-10-07T16:23:27.895Z,12.71
2018-10-07T16:24:55.513Z,12.66
2018-10-07T16:26:21.875Z,12.63
2018-10-07T16:27:49.132Z,12.59
2018-10-07T16:29:16.434Z,12.55
2018-10-07T16:30:44.834Z,12.51
2018-10-07T16:32:11.143Z,12.46
2018-10-07T16:33:38.581Z,12.42
2018-10-07T16:35:05.911Z,12.37
2018-10-07T16:36:34.447Z,12.34
2018-10-07T16:38:00.395Z,12.31
2018-10-07T16:39:27.777Z,12.30
2018-10-07T16:40:55.049Z,12.27
2018-10-07T16:42:22.528Z,12.24
2018-10-07T16:43:50.108Z,12.21
2018-10-07T16:45:18.513Z,12.15
2018-10-07T16:46:44.747Z,12.12
2018-10-07T16:48:13.021Z,12.07
2018-10-07T16:49:39.280Z,12.04
2018-10-07T16:51:06.437Z,12.00
2018-10-07T16:52:33.896Z,11.97
2018-10-07T16:54:02.296Z,11.92
2018-10-07T16:55:29.658Z,11.87
2018-10-07T16:56:57.046Z,11.84
2018-10-07T16:58:23.389Z,11.81
2018-10-07T16:59:50.741Z,11.78
2018-10-07T17:01:18.067Z,11.74
2018-10-07T17:02:45.352Z,11.69
2018-10-07T17:04:13.770Z,11.65
2018-10-07T17:05:41.239Z,11.45
2018-10-07T17:07:07.503Z,11.28
2018-10-07T17:08:35.943Z,11.25
2018-10-07T17:10:02.221Z,11.24
2018-10-07T17:11:30.624Z,11.26
2018-10-07T17:12:57.838Z,11.29
2018-10-07T17:14:24.221Z,11.32
2018-10-07T17:15:52.637Z,11.33
2018-10-07T17:17:19.003Z,11.34
2018-10-07T17:18:47.212Z,11.34
2018-10-07T17:20:14.448Z,11.33
2018-10-07T17:21:41.308Z,11.29
2018-10-07T17:23:07.582Z,11.28
2018-10-07T17:24:35.467Z,11.28
2018-10-07T17:26:02.802Z,11.09
2018-10-07T17:27:28.447Z,10.99
2018-10-07T17:28:56.849Z,10.95
2018-10-07T17:30:23.925Z,10.93
2018-10-07T17:31:51.132Z,10.91
2018-10-07T17:33:18.225Z,10.88
2018-10-07T17:34:44.506Z,10.87
2018-10-07T17:36:11.873Z,10.87
2018-10-07T17:37:39.212Z,10.88
2018-10-07T17:39:07.504Z,10.89
2018-10-07T17:40:34.043Z,10.90
2018-10-07T17:42:00.982Z,10.89
2018-10-07T17:43:28.311Z,10.88
2018-10-07T17:44:56.656Z,10.85
2018-10-07T17:46:22.785Z,10.81
2018-10-07T17:47:50.239Z,10.79
2018-10-07T17:49:18.727Z,10.74
2018-10-07T17:50:45.881Z,10.70
2018-10-07T17:52:12.201Z,10.67
2018-10-07T17:53:40.782Z,10.63
2018-10-07T17:55:08.115Z,10.58
2018-10-07T17:56:34.063Z,10.54
2018-10-07T17:58:02.466Z,10.52
2018-10-07T17:59:29.704Z,10.51
2018-10-07T18:00:57.068Z,10.50
2018-10-07T18:02:23.425Z,10.49
2018-10-07T18:03:51.564Z,10.46
2018-10-07T18:05:18.867Z,10.45
2018-10-07T18:06:46.176Z,10.43
2018-10-07T18:08:13.790Z,10.40
2018-10-07T18:09:40.089Z,10.32
2018-10-07T18:11:08.495Z,10.13
2018-10-07T18:12:34.751Z,10.00
2018-10-07T18:14:02.191Z,9.95
2018-10-07T18:15:30.345Z,9.93
2018-10-07T18:16:56.445Z,9.91
2018-10-07T18:18:24.236Z,9.91
2018-10-07T18:19:49.842Z,9.92
2018-10-07T18:21:18.340Z,9.90
2018-10-07T18:22:44.370Z,9.88
2018-10-07T18:24:11.681Z,9.89
2018-10-07T18:25:38.951Z,9.89
2018-10-07T18:27:06.106Z,9.86
2018-10-07T18:28:34.506Z,9.83
2018-10-07T18:30:01.770Z,9.80
2018-10-07T18:31:28.191Z,9.79
2018-10-07T18:32:56.596Z,9.78
2018-10-07T18:34:22.947Z,9.77
2018-10-07T18:35:50.246Z,9.76
2018-10-07T18:37:18.547Z,9.73
2018-10-07T18:38:45.780Z,9.70
2018-10-07T18:40:13.180Z,9.61
2018-10-07T18:41:39.347Z,9.40
2018-10-07T18:43:07.016Z,9.23
2018-10-07T18:44:34.279Z,9.17
2018-10-07T18:46:00.388Z,9.20
2018-10-07T18:47:28.575Z,9.12
2018-10-07T18:48:56.092Z,8.97
2018-10-07T18:50:23.087Z,8.81
2018-10-07T18:51:50.071Z,8.74
2018-10-07T18:53:17.336Z,8.72
2018-10-07T18:54:43.262Z,8.67
2018-10-07T18:56:11.626Z,8.56
2018-10-07T18:57:38.438Z,8.45
2018-10-07T18:59:04.737Z,8.45
2018-10-07T19:00:33.096Z,8.50
2018-10-07T19:01:59.436Z,8.57
2018-10-07T19:03:26.925Z,8.61
2018-10-07T19:04:55.042Z,8.66
2018-10-07T19:06:22.565Z,8.69
2018-10-07T19:07:48.831Z,8.72
2018-10-07T19:09:17.017Z,8.76
2018-10-07T19:10:43.214Z,8.79
2018-10-07T19:12:10.475Z,8.85
2018-10-07T19:13:39.100Z,8.91
2018-10-07T19:15:06.554Z,8.95
2018-10-07T19:16:32.804Z,8.96
2018-10-07T19:18:01.195Z,8.99
2018-10-07T19:19:27.536Z,9.02
2018-10-07T19:20:54.444Z,9.05
2018-10-07T19:22:21.241Z,9.07
2018-10-07T19:23:48.593Z,9.08
2018-10-07T19:25:16.711Z,9.08
2018-10-07T19:26:43.858Z,9.08
2018-10-07T19:28:10.217Z,9.08
2018-10-07T19:29:37.588Z,9.05
2018-10-07T19:31:04.894Z,9.06
2018-10-07T19:32:32.302Z,9.06
2018-10-07T19:33:59.557Z,9.06
2018-10-07T19:35:26.923Z,9.07
2018-10-07T19:36:53.981Z,9.05
2018-10-07T19:38:21.026Z,8.93
2018-10-07T19:39:48.031Z,8.80
2018-10-07T19:41:16.185Z,8.68
2018-10-07T19:42:43.701Z,8.55
2018-10-07T19:44:11.097Z,8.47
2018-10-07T19:45:36.899Z,8.40
2018-10-07T19:47:05.115Z,8.35
2018-10-07T19:48:32.346Z,8.25
2018-10-07T19:49:59.496Z,8.16
2018-10-07T19:51:26.702Z,8.01
2018-10-07T19:52:53.173Z,7.92
2018-10-07T19:54:21.237Z,7.84
2018-10-07T19:55:47.555Z,7.78
2018-10-07T19:57:15.990Z,7.75
2018-10-07T19:58:42.360Z,7.68
2018-10-07T20:00:10.258Z,7.69
2018-10-07T20:01:37.446Z,7.63
2018-10-07T20:03:04.335Z,7.62
2018-10-07T20:04:30.108Z,7.63
2018-10-07T20:05:57.373Z,7.65
2018-10-07T20:21:08.531Z,8.42
2018-10-07T20:22:35.174Z,8.37
2018-10-07T20:24:03.229Z,8.40
2018-10-07T20:25:29.507Z,8.35
2018-10-07T20:26:56.992Z,8.31
2018-10-07T20:28:25.123Z,8.25
2018-10-07T20:29:51.420Z,8.20
2018-10-07T20:31:18.796Z,8.22
2018-10-07T20:32:47.160Z,8.25
2018-10-07T20:34:13.185Z,8.28
2018-10-07T20:35:41.520Z,8.24
2018-10-07T20:37:08.772Z,8.24
2018-10-07T20:38:35.141Z,8.25
2018-10-07T20:40:01.990Z,8.27
2018-10-07T20:41:29.320Z,8.31
2018-10-07T20:42:56.762Z,8.31
2018-10-07T20:44:25.011Z,8.28
2018-10-07T20:45:51.294Z,8.26
2018-10-07T20:47:19.498Z,8.25
2018-10-07T20:48:45.779Z,8.20
2018-10-07T20:50:12.262Z,8.06
2018-10-07T20:51:39.447Z,7.93
2018-10-07T20:53:07.765Z,7.91
2018-10-07T20:54:35.067Z,7.89
2018-10-07T20:56:01.091Z,7.88
2018-10-07T20:57:29.330Z,7.88
2018-10-07T20:58:56.614Z,7.88
2018-10-07T21:00:23.703Z,7.88
2018-10-07T21:01:49.940Z,7.89
2018-10-07T21:03:18.057Z,7.90
2018-10-07T21:04:45.118Z,7.89
2018-10-07T21:06:12.012Z,7.88
2018-10-07T21:07:39.243Z,7.89
2018-10-07T21:09:06.054Z,7.89
2018-10-07T21:10:32.270Z,7.87
2018-10-07T21:12:00.039Z,7.85
2018-10-07T21:13:26.231Z,7.83
2018-10-07T21:14:54.644Z,7.84
2018-10-07T21:16:21.718Z,7.85
2018-10-07T21:17:48.732Z,7.87
2018-10-07T21:19:16.123Z,7.87
2018-10-07T21:20:42.329Z,7.87
2018-10-07T21:22:09.751Z,7.86
2018-10-07T21:23:36.894Z,7.85
2018-10-07T21:25:04.157Z,7.84
2018-10-07T21:26:32.049Z,7.73
2018-10-07T21:27:57.947Z,7.50
2018-10-07T21:37:40.718Z,7.43
2018-10-07T21:39:07.311Z,7.37
2018-10-07T21:40:33.557Z,7.38
2018-10-07T21:42:01.039Z,7.36
2018-10-07T21:43:28.923Z,7.32
2018-10-07T21:44:54.881Z,7.34
2018-10-07T21:46:23.478Z,7.37
2018-10-07T21:47:50.578Z,7.33
2018-10-07T21:49:17.815Z,7.21
2018-10-07T21:50:43.800Z,7.02
2018-10-07T21:52:11.217Z,6.82
2018-10-07T21:53:39.706Z,6.66
2018-10-07T21:55:05.349Z,6.55
2018-10-07T21:56:33.597Z,6.45
2018-10-07T21:57:59.875Z,6.41
2018-10-07T21:59:26.866Z,6.39
2018-10-07T22:00:57.175Z,6.33
2018-10-07T22:02:22.352Z,6.25
2018-10-07T22:03:48.866Z,6.22
2018-10-07T22:05:15.778Z,6.24
2018-10-07T22:06:42.936Z,6.22
2018-10-07T22:08:10.110Z,6.20
2018-10-07T22:09:37.258Z,6.15
2018-10-07T22:11:03.627Z,6.10
2018-10-07T22:12:30.359Z,6.05
2018-10-07T22:13:57.416Z,6.01
2018-10-07T22:15:25.513Z,5.97
2018-10-07T22:16:52.577Z,5.91
2018-10-07T22:30:26.731Z,6.40
2018-10-07T22:31:52.802Z,6.50
2018-10-07T22:33:18.655Z,6.57
2018-10-07T22:34:46.614Z,6.61
2018-10-07T22:36:13.820Z,6.66
2018-10-07T22:37:39.573Z,6.71
2018-10-07T22:39:06.357Z,6.74
2018-10-07T22:40:33.287Z,6.73
2018-10-07T22:42:00.076Z,6.68
2018-10-07T22:43:27.384Z,6.65
2018-10-07T22:44:55.603Z,6.64
2018-10-07T22:46:22.118Z,6.63
2018-10-07T22:47:49.100Z,6.62
2018-10-07T22:49:16.064Z,6.63
2018-10-07T22:50:42.177Z,6.60
2018-10-07T22:52:08.833Z,6.58
2018-10-07T22:53:35.365Z,6.59
2018-10-07T22:55:02.013Z,6.61
2018-10-07T22:56:30.436Z,6.63
2018-10-07T22:57:57.716Z,6.64
2018-10-07T22:59:24.121Z,6.64
2018-10-07T23:00:51.405Z,6.66
2018-10-07T23:02:19.576Z,6.68
2018-10-07T23:03:46.641Z,6.70
2018-10-07T23:05:12.971Z,6.72
2018-10-07T23:06:41.095Z,6.73
2018-10-07T23:08:08.394Z,6.74
2018-10-07T23:09:34.716Z,6.74
2018-10-07T23:11:02.960Z,6.74
2018-10-07T23:12:30.230Z,6.73
2018-10-07T23:13:56.536Z,6.73
2018-10-07T23:15:24.326Z,6.72
2018-10-07T23:16:50.864Z,6.72
2018-10-07T23:18:16.680Z,6.73
2018-10-07T23:19:43.777Z,6.74
2018-10-07T23:21:10.987Z,6.75
2018-10-07T23:22:38.227Z,6.79
2018-10-07T23:24:04.956Z,6.80
2018-10-07T23:25:33.162Z,6.81
2018-10-07T23:26:59.505Z,6.81
2018-10-07T23:28:27.741Z,6.82
2018-10-07T23:29:53.950Z,6.83
2018-10-07T23:31:22.253Z,6.83
2018-10-07T23:32:49.159Z,6.82
2018-10-07T23:34:15.879Z,6.82
2018-10-07T23:35:42.166Z,6.82
2018-10-07T23:37:10.309Z,6.84
2018-10-07T23:38:37.546Z,6.85
2018-10-07T23:40:05.039Z,6.86
2018-10-07T23:41:31.245Z,6.86
2018-10-07T23:42:59.468Z,6.86
2018-10-07T23:44:25.771Z,6.85
2018-10-07T23:45:53.065Z,6.87
2018-10-07T23:47:21.356Z,6.89
2018-10-07T23:48:47.541Z,6.90
2018-10-07T23:50:15.809Z,6.89
2018-10-07T23:51:43.211Z,6.90
2018-10-07T23:53:09.882Z,6.90
2018-10-07T23:54:35.766Z,6.91
2018-10-07T23:56:02.954Z,6.92
2018-10-07T23:57:30.198Z,6.92
2018-10-07T23:58:58.303Z,6.91
